Terminal Aerodrome Forecast
Issued by NWS Amarillo, TX

Home | Current Version | Previous Version | Text Only | Print | Product List | Glossary On
Versions: 1 2 3 4 5 6 7 8 9 10 11 12 13
757
FTUS44 KAMA 071720
TAFDHT
TAF
KDHT 071720Z 0718/0818 03014KT P6SM SCT300
     FM080500 32008KT P6SM SKC=

USA.gov is the U.S. government's official web portal to all federal, state and local government web resources and services.